createdAt,value
2019-02-04T00:02:07.809Z,33.6
2019-02-04T00:05:13.780Z,33.6
2019-02-04T00:08:19.728Z,33.6
2019-02-04T00:11:25.794Z,33.7
2019-02-04T00:14:31.858Z,33.7
2019-02-04T00:17:37.817Z,33.7
2019-02-04T00:20:43.693Z,33.7
2019-02-04T00:23:50.147Z,33.7
2019-02-04T00:26:56.126Z,33.7
2019-02-04T00:30:02.471Z,33.7
2019-02-04T00:33:08.940Z,33.7
2019-02-04T00:36:15.004Z,33.7
2019-02-04T00:39:20.965Z,33.7
2019-02-04T00:42:27.027Z,33.7
2019-02-04T00:45:33.087Z,33.7
2019-02-04T00:48:39.047Z,33.7
2019-02-04T00:51:45.627Z,33.7
2019-02-04T00:54:53.115Z,33.8
2019-02-04T00:57:59.100Z,33.8
2019-02-04T01:01:05.239Z,33.8
2019-02-04T01:04:11.222Z,33.8
2019-02-04T01:07:17.269Z,33.7
2019-02-04T01:10:23.330Z,33.5
2019-02-04T01:13:29.388Z,33.4
2019-02-04T01:16:36.869Z,33.4
2019-02-04T01:19:42.834Z,33.3
2019-02-04T01:22:48.711Z,33.2
2019-02-04T01:25:54.754Z,33.2
2019-02-04T01:29:00.817Z,33.1
2019-02-04T01:32:06.779Z,33.2
2019-02-04T01:35:12.833Z,33.1
2019-02-04T01:38:20.944Z,33
2019-02-04T01:41:27.023Z,32.9
2019-02-04T01:44:35.832Z,32.9
2019-02-04T01:47:41.790Z,32.9
2019-02-04T01:50:47.749Z,32.8
2019-02-04T01:53:53.623Z,32.8
2019-02-04T01:56:59.874Z,32.8
2019-02-04T02:00:07.472Z,32.7
2019-02-04T02:03:13.540Z,32.6
2019-02-04T02:06:19.594Z,32.6
2019-02-04T02:09:25.552Z,32.5
2019-02-04T02:12:31.484Z,32.5
2019-02-04T02:15:37.584Z,32.4
2019-02-04T02:18:43.850Z,32.4
2019-02-04T02:21:51.129Z,32.2
2019-02-04T02:24:57.193Z,32.2
2019-02-04T02:28:03.151Z,32.1
2019-02-04T02:31:09.214Z,32
2019-02-04T02:34:15.182Z,32
2019-02-04T02:37:21.236Z,31.9
2019-02-04T02:40:27.206Z,31.9
2019-02-04T02:43:35.205Z,31.8
2019-02-04T02:46:41.179Z,31.8
2019-02-04T02:49:47.227Z,31.8
2019-02-04T02:52:53.110Z,31.7
2019-02-04T02:55:59.144Z,31.6
2019-02-04T02:59:05.102Z,31.5
2019-02-04T03:02:11.160Z,31.5
2019-02-04T03:05:17.438Z,31.5
2019-02-04T03:08:23.461Z,31.5
2019-02-04T03:11:29.628Z,31.5
2019-02-04T03:14:35.920Z,31.5
2019-02-04T03:17:52.741Z,31.5
2019-02-04T03:20:58.795Z,31.4
2019-02-04T03:24:05.062Z,31.3
2019-02-04T03:27:11.635Z,31.3
2019-02-04T03:30:17.709Z,31.3
2019-02-04T03:33:24.683Z,31.2
2019-02-04T03:36:33.717Z,31.2
2019-02-04T03:39:40.843Z,31.1
2019-02-04T03:42:47.076Z,31.1
2019-02-04T03:45:53.034Z,31.1
2019-02-04T03:48:58.911Z,31.1
2019-02-04T03:52:05.154Z,31.3
2019-02-04T03:55:11.215Z,31.1
2019-02-04T03:58:17.166Z,31
2019-02-04T04:01:24.150Z,30.9
2019-02-04T04:04:30.212Z,30.8
2019-02-04T04:07:36.377Z,30.7
2019-02-04T04:10:42.251Z,30.7
2019-02-04T04:13:48.195Z,30.6
2019-02-04T04:16:54.163Z,30.6
2019-02-04T04:20:00.033Z,30.7
2019-02-04T04:23:06.384Z,31.1
2019-02-04T04:26:12.255Z,30.8
2019-02-04T04:29:18.603Z,30.4
2019-02-04T04:32:25.792Z,30.4
2019-02-04T04:35:34.765Z,30.5
2019-02-04T04:38:40.784Z,30.5
2019-02-04T04:41:46.671Z,30.3
2019-02-04T04:44:52.706Z,30.2
2019-02-04T04:47:58.666Z,30.1
2019-02-04T04:51:04.927Z,30.4
2019-02-04T04:54:11.609Z,30.8
2019-02-04T04:57:17.512Z,30.5
2019-02-04T05:00:23.521Z,30.4
2019-02-04T05:03:29.422Z,30.3
2019-02-04T05:06:35.345Z,30.1
2019-02-04T05:09:41.307Z,30.1
2019-02-04T05:12:47.242Z,30.1
2019-02-04T05:15:55.270Z,30.1
2019-02-04T05:19:01.332Z,30.2
2019-02-04T05:22:07.493Z,30
2019-02-04T05:25:13.436Z,30
2019-02-04T05:28:19.521Z,30
2019-02-04T05:31:25.393Z,29.9
2019-02-04T05:34:31.856Z,29.9
2019-02-04T05:37:39.738Z,29.9
2019-02-04T05:40:45.921Z,29.8
2019-02-04T05:43:51.982Z,29.8
2019-02-04T05:46:57.939Z,29.9
2019-02-04T05:50:03.889Z,29.8
2019-02-04T05:53:09.951Z,29.9
2019-02-04T05:56:16.080Z,29.9
2019-02-04T05:59:23.817Z,29.8
2019-02-04T06:02:29.705Z,30.8
2019-02-04T06:05:36.145Z,31
2019-02-04T06:08:42.106Z,30.3
2019-02-04T06:11:48.040Z,30.8
2019-02-04T06:14:54.131Z,30
2019-02-04T06:18:00.090Z,30.1
2019-02-04T06:21:06.282Z,29.8
2019-02-04T06:24:12.210Z,29.5
2019-02-04T06:27:18.474Z,29.9
2019-02-04T06:30:25.162Z,29.8
2019-02-04T06:33:31.217Z,29.8
2019-02-04T06:36:37.173Z,30
2019-02-04T06:39:43.125Z,30.4
2019-02-04T06:42:49.519Z,30.2
2019-02-04T06:45:55.482Z,29.6
2019-02-04T06:49:12.739Z,30.1
2019-02-04T06:52:18.747Z,29.7
2019-02-04T06:55:24.808Z,30.1
2019-02-04T06:58:30.753Z,29.7
2019-02-04T07:01:36.719Z,30.1
2019-02-04T07:04:44.582Z,29.5
2019-02-04T07:07:50.467Z,29
2019-02-04T07:10:56.550Z,29.1
2019-02-04T07:14:02.512Z,29.4
2019-02-04T07:17:08.508Z,29.5
2019-02-04T07:20:14.748Z,28.8
2019-02-04T07:23:20.704Z,28.7
2019-02-04T07:26:26.767Z,29.3
2019-02-04T07:29:32.931Z,28.8
2019-02-04T07:32:38.942Z,28.7
2019-02-04T07:35:47.100Z,29
2019-02-04T07:38:52.988Z,29.3
2019-02-04T07:41:59.432Z,28.7
2019-02-04T07:45:05.418Z,28.6
2019-02-04T07:48:11.453Z,28.5
2019-02-04T07:51:17.509Z,29.1
2019-02-04T07:54:26.178Z,28.6
2019-02-04T07:57:34.242Z,29.1
2019-02-04T08:00:40.616Z,29.4
2019-02-04T08:03:46.571Z,29.1
2019-02-04T08:06:52.530Z,29.6
2019-02-04T08:09:58.489Z,29.4
2019-02-04T08:13:04.562Z,29.1
2019-02-04T08:16:10.920Z,29
2019-02-04T08:19:19.050Z,28.7
2019-02-04T08:22:25.922Z,28.7
2019-02-04T08:25:31.971Z,29.3
2019-02-04T08:28:38.048Z,29
2019-02-04T08:31:45.121Z,29.4
2019-02-04T08:34:51.182Z,29.8
2019-02-04T08:37:57.242Z,29.6
2019-02-04T08:41:03.305Z,29
2019-02-04T08:44:09.388Z,29.5
2019-02-04T08:47:24.854Z,28.7
2019-02-04T08:50:33.621Z,29.1
2019-02-04T08:53:39.637Z,29.7
2019-02-04T08:56:45.925Z,29.1
2019-02-04T08:59:51.895Z,28.6
2019-02-04T09:02:58.024Z,28.5
2019-02-04T09:06:04.086Z,29
2019-02-04T09:09:10.138Z,29.1
2019-02-04T09:12:18.051Z,28.7
2019-02-04T09:15:24.281Z,28.8
2019-02-04T09:18:31.510Z,28.8
2019-02-04T09:21:49.665Z,29.1
2019-02-04T09:24:59.915Z,29.1
2019-02-04T09:28:06.196Z,29
2019-02-04T09:31:12.109Z,29.9
2019-02-04T09:34:18.107Z,29.3
2019-02-04T09:37:24.183Z,29.1
2019-02-04T09:40:30.442Z,28.7
2019-02-04T09:43:36.606Z,28.9
2019-02-04T09:46:44.714Z,28.6
2019-02-04T09:49:50.773Z,28.7
2019-02-04T09:52:57.106Z,29.9
2019-02-04T09:56:04.833Z,28.8
2019-02-04T09:59:10.902Z,28.8
2019-02-04T10:02:16.972Z,28.8
2019-02-04T10:05:22.857Z,29.1
2019-02-04T10:08:28.957Z,28.6
2019-02-04T10:11:34.940Z,28.6
2019-02-04T10:14:41.569Z,28.4
2019-02-04T10:17:49.400Z,28.5
2019-02-04T10:20:55.592Z,28.5
2019-02-04T10:24:01.964Z,28.4
2019-02-04T10:27:08.031Z,28.6
2019-02-04T10:30:14.082Z,28.4
2019-02-04T10:33:20.479Z,28.4
2019-02-04T10:36:26.750Z,28.6
2019-02-04T10:39:34.419Z,28.8
2019-02-04T10:42:40.591Z,28.8
2019-02-04T10:45:46.864Z,28.4
2019-02-04T10:48:53.056Z,28.4
2019-02-04T10:51:59.538Z,28.4
2019-02-04T10:55:05.964Z,28.5
2019-02-04T10:58:12.246Z,28.4
2019-02-04T11:01:19.791Z,28.7
2019-02-04T11:04:26.201Z,28.5
2019-02-04T11:07:32.799Z,28.8
2019-02-04T11:10:38.966Z,28.4
2019-02-04T11:13:45.507Z,28.9
2019-02-04T11:16:51.662Z,28.8
2019-02-04T11:19:57.997Z,28.5
2019-02-04T11:23:08.924Z,28.6
2019-02-04T11:26:17.656Z,29.1
2019-02-04T11:29:23.906Z,28.8
2019-02-04T11:32:30.363Z,28.9
2019-02-04T11:35:36.560Z,28.8
2019-02-04T11:38:43.022Z,28.6
2019-02-04T11:41:49.182Z,28.6
2019-02-04T11:44:57.118Z,28.6
2019-02-04T11:48:03.572Z,28.8
2019-02-04T11:51:10.771Z,28.7
2019-02-04T11:54:16.778Z,28.7
2019-02-04T11:57:22.768Z,29.1
2019-02-04T12:00:28.655Z,29.4
2019-02-04T12:03:37.767Z,29.8
2019-02-04T12:06:44.892Z,30.6
2019-02-04T12:09:50.847Z,29.6
2019-02-04T12:12:56.971Z,29.7
2019-02-04T12:16:02.937Z,29.4
2019-02-04T12:19:09.193Z,29.4
2019-02-04T12:22:15.082Z,29.3
2019-02-04T12:25:21.214Z,29.3
2019-02-04T12:28:29.330Z,29.1
2019-02-04T12:31:35.392Z,29.2
2019-02-04T12:34:41.552Z,29.3
2019-02-04T12:37:47.614Z,29.4
2019-02-04T12:40:53.565Z,29.6
2019-02-04T12:43:59.641Z,29.7
2019-02-04T12:47:05.804Z,29.5
2019-02-04T12:50:11.736Z,29.5
2019-02-04T12:53:17.831Z,30.4
2019-02-04T12:56:23.905Z,29.8
2019-02-04T12:59:31.589Z,29.8
2019-02-04T13:02:37.745Z,29.8
2019-02-04T13:05:43.809Z,29.9
2019-02-04T13:08:49.770Z,29.7
2019-02-04T13:11:55.940Z,29.7
2019-02-04T13:15:02.099Z,29.5
2019-02-04T13:18:08.379Z,29.7
2019-02-04T13:21:16.062Z,29.6
2019-02-04T13:24:22.128Z,29.6
2019-02-04T13:27:28.306Z,29.6
2019-02-04T13:30:34.661Z,29.7
2019-02-04T13:33:40.718Z,29.7
2019-02-04T13:36:46.728Z,29.7
2019-02-04T13:39:52.768Z,29.8
2019-02-04T13:42:59.335Z,29.7
2019-02-04T13:46:06.630Z,29.8
2019-02-04T13:49:12.782Z,29.8
2019-02-04T13:52:18.839Z,29.9
2019-02-04T13:55:24.798Z,29.9
2019-02-04T13:58:30.864Z,29.9
2019-02-04T14:01:37.024Z,30.1
2019-02-04T14:04:43.099Z,30.1
2019-02-04T14:07:49.153Z,30
2019-02-04T14:10:58.380Z,30
2019-02-04T14:14:04.323Z,29.9
2019-02-04T14:17:10.507Z,29.8
2019-02-04T14:20:16.559Z,29.9
2019-02-04T14:23:22.525Z,29.9
2019-02-04T14:26:33.536Z,30
2019-02-04T14:29:40.040Z,30.2
2019-02-04T14:32:46.334Z,30.1
2019-02-04T14:35:52.523Z,30
2019-02-04T14:38:58.521Z,30.1
2019-02-04T14:42:04.634Z,30.1
2019-02-04T14:45:10.993Z,30.1
2019-02-04T14:48:18.999Z,30
2019-02-04T14:51:24.935Z,30
2019-02-04T14:54:38.499Z,30.1
2019-02-04T14:57:44.769Z,30
2019-02-04T15:00:55.071Z,30.1
2019-02-04T15:04:01.400Z,30
2019-02-04T15:07:10.731Z,30.2
2019-02-04T15:10:17.204Z,30.1
2019-02-04T15:13:24.427Z,29.9
2019-02-04T15:16:30.435Z,29.9
2019-02-04T15:19:38.396Z,29.9
2019-02-04T15:22:44.352Z,29.9
2019-02-04T15:25:51.710Z,29.8
2019-02-04T15:28:57.669Z,29.9
2019-02-04T15:32:03.733Z,30.2
2019-02-04T15:35:09.804Z,29.8
2019-02-04T15:38:15.787Z,29.8
2019-02-04T15:41:21.813Z,29.7
2019-02-04T15:44:27.747Z,29.7
2019-02-04T15:47:35.344Z,30
2019-02-04T15:50:41.477Z,30
2019-02-04T15:53:47.499Z,30.3
2019-02-04T15:56:53.670Z,29.8
2019-02-04T15:59:59.827Z,29.8
2019-02-04T16:03:05.799Z,29.8
2019-02-04T16:06:11.948Z,29.6
2019-02-04T16:09:18.312Z,29.7
2019-02-04T16:12:24.277Z,29.9
2019-02-04T16:15:30.652Z,30
2019-02-04T16:18:37.942Z,29.8
2019-02-04T16:21:43.901Z,30.2
2019-02-04T16:24:49.971Z,29.9
2019-02-04T16:27:55.896Z,29.7
2019-02-04T16:31:01.982Z,29.6
2019-02-04T16:34:07.954Z,29.6
2019-02-04T16:37:16.875Z,29.5
2019-02-04T16:40:25.699Z,29.6
2019-02-04T16:43:31.655Z,30.1
2019-02-04T16:46:40.118Z,29.7
2019-02-04T16:49:46.032Z,29.6
2019-02-04T16:52:52.097Z,29.7
2019-02-04T16:55:58.113Z,29.5
2019-02-04T16:59:03.948Z,29.6
2019-02-04T17:02:11.609Z,29.6
2019-02-04T17:05:17.569Z,29.6
2019-02-04T17:08:23.938Z,29.6
2019-02-04T17:11:30.204Z,29.7
2019-02-04T17:14:36.266Z,29.5
2019-02-04T17:17:42.233Z,29.5
2019-02-04T17:20:48.114Z,29.5
2019-02-04T17:23:54.044Z,29.5
2019-02-04T17:27:00.003Z,29.5
2019-02-04T17:30:06.062Z,29.5
2019-02-04T17:33:14.165Z,29.5
2019-02-04T17:36:20.226Z,29.6
2019-02-04T17:39:26.296Z,29.5
2019-02-04T17:42:32.176Z,29.4
2019-02-04T17:45:38.121Z,29.5
2019-02-04T17:48:44.082Z,29.4
2019-02-04T17:51:50.088Z,29.4
2019-02-04T17:54:56.812Z,29.4
2019-02-04T17:58:02.876Z,29.4
2019-02-04T18:01:09.246Z,29.4
2019-02-04T18:04:16.658Z,29.4
2019-02-04T18:07:22.746Z,29.5
2019-02-04T18:10:28.759Z,29.5
2019-02-04T18:13:34.826Z,29.5
2019-02-04T18:16:40.779Z,29.6
2019-02-04T18:19:48.585Z,29.7
2019-02-04T18:22:54.647Z,29.8
2019-02-04T18:26:02.558Z,29.8
2019-02-04T18:29:12.257Z,29.8
2019-02-04T18:32:18.261Z,29.9
2019-02-04T18:35:24.222Z,29.9
2019-02-04T18:38:33.370Z,29.9
2019-02-04T18:41:40.525Z,30
2019-02-04T18:44:46.601Z,30
2019-02-04T18:47:52.678Z,30
2019-02-04T18:51:01.195Z,30.1
2019-02-04T18:54:07.101Z,30.1
2019-02-04T18:57:13.316Z,30.1
2019-02-04T19:00:22.032Z,30.2
2019-02-04T19:03:28.093Z,30.2
2019-02-04T19:06:33.967Z,30.2
2019-02-04T19:09:52.405Z,30.3
2019-02-04T19:12:58.466Z,30.3
2019-02-04T19:16:04.425Z,30.3
2019-02-04T19:19:10.365Z,30.4
2019-02-04T19:22:16.410Z,30.4
2019-02-04T19:25:22.510Z,30.4
2019-02-04T19:28:28.473Z,30.4
2019-02-04T19:31:34.742Z,30.4
2019-02-04T19:34:42.339Z,30.5
2019-02-04T19:37:48.396Z,30.5
2019-02-04T19:40:54.360Z,30.5
2019-02-04T19:44:00.340Z,30.6
2019-02-04T19:47:06.277Z,30.6
2019-02-04T19:50:12.161Z,30.6
2019-02-04T19:53:18.196Z,30.6
2019-02-04T19:56:29.069Z,30.7
2019-02-04T19:59:35.135Z,30.7
2019-02-04T20:02:41.299Z,30.7
2019-02-04T20:05:47.362Z,30.7
2019-02-04T20:08:56.616Z,30.7
2019-02-04T20:12:02.631Z,30.7
2019-02-04T20:15:08.622Z,30.8
2019-02-04T20:18:15.607Z,30.8
2019-02-04T20:21:21.471Z,30.8
2019-02-04T20:24:34.081Z,30.8
2019-02-04T20:27:40.145Z,30.8
2019-02-04T20:30:47.126Z,30.8
2019-02-04T20:33:53.086Z,30.9
2019-02-04T20:36:59.343Z,30.9
2019-02-04T20:40:05.713Z,30.9
2019-02-04T20:43:11.631Z,30.9
2019-02-04T20:46:17.946Z,30.9
2019-02-04T20:49:25.747Z,30.9
2019-02-04T20:52:31.705Z,30.9
2019-02-04T20:55:37.663Z,30.9
2019-02-04T20:58:43.723Z,30.9
2019-02-04T21:01:49.626Z,30.9
2019-02-04T21:04:55.641Z,31
2019-02-04T21:08:01.703Z,31
2019-02-04T21:11:08.278Z,31
2019-02-04T21:14:14.243Z,31
2019-02-04T21:17:20.709Z,31
2019-02-04T21:20:27.694Z,31
2019-02-04T21:23:33.768Z,31
2019-02-04T21:26:39.645Z,31
2019-02-04T21:29:45.676Z,31
2019-02-04T21:32:51.553Z,31
2019-02-04T21:35:57.605Z,31
2019-02-04T21:39:03.565Z,31
2019-02-04T21:42:11.153Z,31.1
2019-02-04T21:45:17.111Z,31
2019-02-04T21:48:23.582Z,31
2019-02-04T21:51:29.746Z,31
2019-02-04T21:54:35.702Z,31
2019-02-04T21:57:41.773Z,31
2019-02-04T22:00:47.734Z,31
2019-02-04T22:03:53.692Z,31.1
2019-02-04T22:06:59.651Z,31.2
2019-02-04T22:10:05.917Z,31.2
2019-02-04T22:13:13.514Z,31.2
2019-02-04T22:16:22.235Z,31.2
2019-02-04T22:19:30.447Z,31.2
2019-02-04T22:22:36.409Z,31.3
2019-02-04T22:25:42.470Z,31.3
2019-02-04T22:28:48.531Z,31.3
2019-02-04T22:31:54.605Z,31.3
2019-02-04T22:35:02.914Z,31.4
2019-02-04T22:38:08.976Z,31.4
2019-02-04T22:41:15.049Z,31.5
2019-02-04T22:44:22.631Z,31.5
2019-02-04T22:47:28.598Z,31.5
2019-02-04T22:50:34.755Z,31.5
2019-02-04T22:53:40.719Z,31.5
2019-02-04T22:56:46.779Z,31.5
2019-02-04T22:59:52.756Z,31.6
2019-02-04T23:02:58.804Z,31.6
2019-02-04T23:06:05.792Z,31.6
2019-02-04T23:09:11.740Z,31.6
2019-02-04T23:12:18.008Z,31.6
2019-02-04T23:15:24.582Z,31.7
2019-02-04T23:18:30.500Z,31.7
2019-02-04T23:21:36.500Z,31.7
2019-02-04T23:24:42.577Z,31.7
2019-02-04T23:27:48.734Z,31.7
2019-02-04T23:30:54.790Z,31.7
2019-02-04T23:34:01.159Z,31.7
2019-02-04T23:37:08.448Z,31.7
2019-02-04T23:40:14.512Z,31.7
2019-02-04T23:43:20.574Z,31.7
2019-02-04T23:46:26.538Z,31.7
2019-02-04T23:49:32.602Z,31.7
2019-02-04T23:52:38.671Z,31.7
2019-02-04T23:55:55.047Z,31.7
2019-02-04T23:59:01.094Z,31.7
